sensor_id;sensor_type;location;lat;lon;timestamp;P1;durP1;ratioP1;P2;durP2;ratioP2
72856;SDS011;62742;52.136;4.500;2023-07-24T00:01:08;9.25;;;5.40;;
72856;SDS011;62742;52.136;4.500;2023-07-24T00:03:34;10.00;;;4.95;;
72856;SDS011;62742;52.136;4.500;2023-07-24T00:06:01;8.43;;;4.47;;
72856;SDS011;62742;52.136;4.500;2023-07-24T00:08:28;9.70;;;5.03;;
72856;SDS011;62742;52.136;4.500;2023-07-24T00:10:55;11.30;;;5.45;;
72856;SDS011;62742;52.136;4.500;2023-07-24T00:13:21;9.98;;;5.45;;
72856;SDS011;62742;52.136;4.500;2023-07-24T00:15:47;8.25;;;5.00;;
72856;SDS011;62742;52.136;4.500;2023-07-24T00:18:14;9.27;;;5.05;;
72856;SDS011;62742;52.136;4.500;2023-07-24T00:20:40;8.32;;;5.00;;
72856;SDS011;62742;52.136;4.500;2023-07-24T00:23:07;10.52;;;5.30;;
72856;SDS011;62742;52.136;4.500;2023-07-24T00:25:33;10.85;;;5.35;;
72856;SDS011;62742;52.136;4.500;2023-07-24T00:28:00;10.00;;;4.90;;
72856;SDS011;62742;52.136;4.500;2023-07-24T00:30:26;10.38;;;5.50;;
72856;SDS011;62742;52.136;4.500;2023-07-24T00:32:53;10.98;;;5.45;;
72856;SDS011;62742;52.136;4.500;2023-07-24T00:35:19;10.15;;;5.20;;
72856;SDS011;62742;52.136;4.500;2023-07-24T00:37:46;10.52;;;5.82;;
72856;SDS011;62742;52.136;4.500;2023-07-24T00:40:12;10.48;;;5.60;;
72856;SDS011;62742;52.136;4.500;2023-07-24T00:42:39;9.55;;;5.63;;
72856;SDS011;62742;52.136;4.500;2023-07-24T00:45:05;10.95;;;5.75;;
72856;SDS011;62742;52.136;4.500;2023-07-24T00:47:32;9.25;;;5.85;;
72856;SDS011;62742;52.136;4.500;2023-07-24T00:49:59;11.10;;;6.18;;
72856;SDS011;62742;52.136;4.500;2023-07-24T00:52:26;14.57;;;6.53;;
72856;SDS011;62742;52.136;4.500;2023-07-24T00:54:52;11.10;;;6.18;;
72856;SDS011;62742;52.136;4.500;2023-07-24T00:57:20;12.30;;;6.15;;
72856;SDS011;62742;52.136;4.500;2023-07-24T00:59:47;12.80;;;6.55;;
72856;SDS011;62742;52.136;4.500;2023-07-24T01:02:13;12.40;;;6.63;;
72856;SDS011;62742;52.136;4.500;2023-07-24T01:04:40;12.93;;;6.97;;
72856;SDS011;62742;52.136;4.500;2023-07-24T01:07:06;15.77;;;7.25;;
72856;SDS011;62742;52.136;4.500;2023-07-24T01:09:33;13.75;;;7.43;;
72856;SDS011;62742;52.136;4.500;2023-07-24T01:15:34;12.88;;;7.25;;
72856;SDS011;62742;52.136;4.500;2023-07-24T01:18:08;11.82;;;6.40;;
72856;SDS011;62742;52.136;4.500;2023-07-24T01:20:38;12.15;;;7.53;;
72856;SDS011;62742;52.136;4.500;2023-07-24T01:26:43;11.35;;;7.00;;
72856;SDS011;62742;52.136;4.500;2023-07-24T01:29:10;16.08;;;7.43;;
72856;SDS011;62742;52.136;4.500;2023-07-24T01:31:37;12.15;;;6.88;;
72856;SDS011;62742;52.136;4.500;2023-07-24T01:34:03;12.18;;;6.05;;
72856;SDS011;62742;52.136;4.500;2023-07-24T01:36:30;11.18;;;6.22;;
72856;SDS011;62742;52.136;4.500;2023-07-24T01:38:56;18.13;;;6.63;;
72856;SDS011;62742;52.136;4.500;2023-07-24T01:41:24;11.15;;;6.35;;
72856;SDS011;62742;52.136;4.500;2023-07-24T01:43:52;12.18;;;6.05;;
72856;SDS011;62742;52.136;4.500;2023-07-24T01:46:19;9.65;;;5.88;;
72856;SDS011;62742;52.136;4.500;2023-07-24T01:48:45;10.65;;;5.57;;
72856;SDS011;62742;52.136;4.500;2023-07-24T01:51:12;14.07;;;6.32;;
72856;SDS011;62742;52.136;4.500;2023-07-24T01:53:38;9.13;;;5.40;;
72856;SDS011;62742;52.136;4.500;2023-07-24T01:56:05;12.43;;;5.40;;
72856;SDS011;62742;52.136;4.500;2023-07-24T01:58:31;11.02;;;4.72;;
72856;SDS011;62742;52.136;4.500;2023-07-24T02:00:58;11.85;;;5.57;;
72856;SDS011;62742;52.136;4.500;2023-07-24T02:03:24;12.07;;;5.10;;
72856;SDS011;62742;52.136;4.500;2023-07-24T02:05:50;13.13;;;5.68;;
72856;SDS011;62742;52.136;4.500;2023-07-24T02:08:17;11.20;;;4.97;;
72856;SDS011;62742;52.136;4.500;2023-07-24T02:10:47;11.40;;;5.10;;
72856;SDS011;62742;52.136;4.500;2023-07-24T02:13:15;16.27;;;5.40;;
72856;SDS011;62742;52.136;4.500;2023-07-24T02:15:42;13.73;;;5.88;;
72856;SDS011;62742;52.136;4.500;2023-07-24T02:18:08;12.80;;;5.55;;
72856;SDS011;62742;52.136;4.500;2023-07-24T02:20:35;11.23;;;5.22;;
72856;SDS011;62742;52.136;4.500;2023-07-24T02:23:01;13.25;;;5.72;;
72856;SDS011;62742;52.136;4.500;2023-07-24T02:25:28;14.88;;;5.88;;
72856;SDS011;62742;52.136;4.500;2023-07-24T02:27:54;13.57;;;5.10;;
72856;SDS011;62742;52.136;4.500;2023-07-24T02:30:20;11.73;;;5.65;;
72856;SDS011;62742;52.136;4.500;2023-07-24T02:32:47;13.40;;;5.57;;
72856;SDS011;62742;52.136;4.500;2023-07-24T02:35:13;13.00;;;5.43;;
72856;SDS011;62742;52.136;4.500;2023-07-24T02:37:39;11.75;;;5.15;;
72856;SDS011;62742;52.136;4.500;2023-07-24T02:40:06;12.68;;;4.90;;
72856;SDS011;62742;52.136;4.500;2023-07-24T02:42:33;15.95;;;5.38;;
72856;SDS011;62742;52.136;4.500;2023-07-24T02:45:00;13.00;;;5.28;;
72856;SDS011;62742;52.136;4.500;2023-07-24T02:47:26;12.63;;;4.90;;
72856;SDS011;62742;52.136;4.500;2023-07-24T02:49:52;15.15;;;5.38;;
72856;SDS011;62742;52.136;4.500;2023-07-24T02:52:19;12.60;;;5.80;;
72856;SDS011;62742;52.136;4.500;2023-07-24T02:54:45;11.57;;;5.03;;
72856;SDS011;62742;52.136;4.500;2023-07-24T02:57:12;12.95;;;5.00;;
72856;SDS011;62742;52.136;4.500;2023-07-24T02:59:38;13.52;;;5.50;;
72856;SDS011;62742;52.136;4.500;2023-07-24T03:02:05;12.00;;;5.00;;
72856;SDS011;62742;52.136;4.500;2023-07-24T03:04:31;13.73;;;5.95;;
72856;SDS011;62742;52.136;4.500;2023-07-24T03:06:58;15.20;;;5.65;;
72856;SDS011;62742;52.136;4.500;2023-07-24T03:09:24;15.02;;;5.47;;
72856;SDS011;62742;52.136;4.500;2023-07-24T03:11:51;13.30;;;5.53;;
72856;SDS011;62742;52.136;4.500;2023-07-24T03:14:17;13.77;;;5.85;;
72856;SDS011;62742;52.136;4.500;2023-07-24T03:16:43;12.80;;;5.40;;
72856;SDS011;62742;52.136;4.500;2023-07-24T03:19:10;10.50;;;4.68;;
72856;SDS011;62742;52.136;4.500;2023-07-24T03:21:36;13.23;;;5.10;;
72856;SDS011;62742;52.136;4.500;2023-07-24T03:24:02;10.55;;;4.60;;
72856;SDS011;62742;52.136;4.500;2023-07-24T03:26:30;13.38;;;5.47;;
72856;SDS011;62742;52.136;4.500;2023-07-24T03:28:56;15.60;;;5.72;;
72856;SDS011;62742;52.136;4.500;2023-07-24T03:31:22;13.75;;;5.45;;
72856;SDS011;62742;52.136;4.500;2023-07-24T03:33:49;12.77;;;5.50;;
72856;SDS011;62742;52.136;4.500;2023-07-24T03:36:15;17.38;;;5.63;;
72856;SDS011;62742;52.136;4.500;2023-07-24T03:38:48;12.48;;;5.40;;
72856;SDS011;62742;52.136;4.500;2023-07-24T03:41:14;13.85;;;5.38;;
72856;SDS011;62742;52.136;4.500;2023-07-24T03:43:41;16.70;;;6.03;;
72856;SDS011;62742;52.136;4.500;2023-07-24T03:46:07;17.02;;;6.22;;
72856;SDS011;62742;52.136;4.500;2023-07-24T03:48:33;12.20;;;5.63;;
72856;SDS011;62742;52.136;4.500;2023-07-24T03:51:03;12.52;;;5.15;;
72856;SDS011;62742;52.136;4.500;2023-07-24T03:53:29;16.38;;;6.22;;
72856;SDS011;62742;52.136;4.500;2023-07-24T03:55:55;14.88;;;5.50;;
72856;SDS011;62742;52.136;4.500;2023-07-24T03:58:22;17.13;;;6.25;;
72856;SDS011;62742;52.136;4.500;2023-07-24T04:00:48;15.27;;;5.65;;
72856;SDS011;62742;52.136;4.500;2023-07-24T04:03:15;13.65;;;5.88;;
72856;SDS011;62742;52.136;4.500;2023-07-24T04:05:42;11.63;;;5.78;;
72856;SDS011;62742;52.136;4.500;2023-07-24T04:08:09;16.67;;;5.70;;
72856;SDS011;62742;52.136;4.500;2023-07-24T04:10:36;12.50;;;5.50;;
72856;SDS011;62742;52.136;4.500;2023-07-24T04:13:02;14.45;;;5.53;;
72856;SDS011;62742;52.136;4.500;2023-07-24T04:15:28;13.25;;;5.63;;
72856;SDS011;62742;52.136;4.500;2023-07-24T04:17:55;15.23;;;5.38;;
72856;SDS011;62742;52.136;4.500;2023-07-24T04:20:22;16.25;;;5.55;;
72856;SDS011;62742;52.136;4.500;2023-07-24T04:22:48;14.30;;;5.75;;
72856;SDS011;62742;52.136;4.500;2023-07-24T04:25:14;16.38;;;5.65;;
72856;SDS011;62742;52.136;4.500;2023-07-24T04:27:42;14.02;;;5.72;;
72856;SDS011;62742;52.136;4.500;2023-07-24T04:30:08;14.48;;;5.03;;
72856;SDS011;62742;52.136;4.500;2023-07-24T04:32:35;14.38;;;5.72;;
72856;SDS011;62742;52.136;4.500;2023-07-24T04:35:01;13.65;;;5.68;;
72856;SDS011;62742;52.136;4.500;2023-07-24T04:37:28;15.48;;;5.93;;
72856;SDS011;62742;52.136;4.500;2023-07-24T04:39:56;16.95;;;6.25;;
72856;SDS011;62742;52.136;4.500;2023-07-24T04:42:22;12.63;;;5.22;;
72856;SDS011;62742;52.136;4.500;2023-07-24T04:44:49;14.52;;;5.57;;
72856;SDS011;62742;52.136;4.500;2023-07-24T04:47:17;12.38;;;5.45;;
72856;SDS011;62742;52.136;4.500;2023-07-24T04:49:46;18.65;;;5.82;;
72856;SDS011;62742;52.136;4.500;2023-07-24T04:52:13;15.73;;;5.95;;
72856;SDS011;62742;52.136;4.500;2023-07-24T04:54:39;13.43;;;5.50;;
72856;SDS011;62742;52.136;4.500;2023-07-24T04:57:06;18.25;;;6.15;;
72856;SDS011;62742;52.136;4.500;2023-07-24T04:59:32;13.93;;;5.65;;
72856;SDS011;62742;52.136;4.500;2023-07-24T05:01:58;14.45;;;5.50;;
72856;SDS011;62742;52.136;4.500;2023-07-24T05:04:25;13.68;;;5.65;;
72856;SDS011;62742;52.136;4.500;2023-07-24T05:06:51;16.77;;;5.85;;
72856;SDS011;62742;52.136;4.500;2023-07-24T05:09:18;14.73;;;5.78;;
72856;SDS011;62742;52.136;4.500;2023-07-24T05:11:44;14.93;;;5.97;;
72856;SDS011;62742;52.136;4.500;2023-07-24T05:14:10;13.93;;;6.03;;
72856;SDS011;62742;52.136;4.500;2023-07-24T05:16:37;16.80;;;5.55;;
72856;SDS011;62742;52.136;4.500;2023-07-24T05:19:03;13.77;;;5.93;;
72856;SDS011;62742;52.136;4.500;2023-07-24T05:21:30;12.38;;;5.43;;
72856;SDS011;62742;52.136;4.500;2023-07-24T05:23:57;15.90;;;5.82;;
72856;SDS011;62742;52.136;4.500;2023-07-24T05:26:23;16.13;;;6.00;;
72856;SDS011;62742;52.136;4.500;2023-07-24T05:28:50;15.50;;;6.18;;
72856;SDS011;62742;52.136;4.500;2023-07-24T05:31:18;16.42;;;5.85;;
72856;SDS011;62742;52.136;4.500;2023-07-24T05:33:45;16.20;;;6.40;;
72856;SDS011;62742;52.136;4.500;2023-07-24T05:36:13;17.38;;;6.35;;
72856;SDS011;62742;52.136;4.500;2023-07-24T05:38:39;18.98;;;6.15;;
72856;SDS011;62742;52.136;4.500;2023-07-24T05:41:06;12.98;;;5.68;;
72856;SDS011;62742;52.136;4.500;2023-07-24T05:43:32;15.02;;;5.60;;
72856;SDS011;62742;52.136;4.500;2023-07-24T05:45:59;16.60;;;6.25;;
72856;SDS011;62742;52.136;4.500;2023-07-24T05:48:25;15.85;;;5.68;;
72856;SDS011;62742;52.136;4.500;2023-07-24T05:50:52;15.52;;;5.78;;
72856;SDS011;62742;52.136;4.500;2023-07-24T05:53:18;16.55;;;5.80;;
72856;SDS011;62742;52.136;4.500;2023-07-24T05:55:56;13.43;;;5.82;;
72856;SDS011;62742;52.136;4.500;2023-07-24T05:58:25;14.98;;;6.22;;
72856;SDS011;62742;52.136;4.500;2023-07-24T06:00:52;15.30;;;5.93;;
72856;SDS011;62742;52.136;4.500;2023-07-24T06:03:21;18.63;;;6.55;;
72856;SDS011;62742;52.136;4.500;2023-07-24T06:05:52;15.52;;;5.95;;
72856;SDS011;62742;52.136;4.500;2023-07-24T06:08:20;17.05;;;6.05;;
72856;SDS011;62742;52.136;4.500;2023-07-24T06:10:48;17.92;;;5.70;;
72856;SDS011;62742;52.136;4.500;2023-07-24T06:13:16;13.27;;;6.32;;
72856;SDS011;62742;52.136;4.500;2023-07-24T06:15:44;13.32;;;5.95;;
72856;SDS011;62742;52.136;4.500;2023-07-24T06:18:12;15.70;;;5.85;;
72856;SDS011;62742;52.136;4.500;2023-07-24T06:20:39;16.48;;;6.07;;
72856;SDS011;62742;52.136;4.500;2023-07-24T06:23:05;17.10;;;6.32;;
72856;SDS011;62742;52.136;4.500;2023-07-24T06:25:32;13.32;;;5.25;;
72856;SDS011;62742;52.136;4.500;2023-07-24T06:27:59;17.10;;;5.43;;
72856;SDS011;62742;52.136;4.500;2023-07-24T06:30:25;16.15;;;5.63;;
72856;SDS011;62742;52.136;4.500;2023-07-24T06:32:52;14.52;;;5.72;;
72856;SDS011;62742;52.136;4.500;2023-07-24T06:35:19;18.48;;;5.88;;
72856;SDS011;62742;52.136;4.500;2023-07-24T06:37:46;13.40;;;5.75;;
72856;SDS011;62742;52.136;4.500;2023-07-24T06:40:12;14.18;;;5.85;;
72856;SDS011;62742;52.136;4.500;2023-07-24T06:42:38;16.80;;;6.25;;
72856;SDS011;62742;52.136;4.500;2023-07-24T06:45:05;14.70;;;5.50;;
72856;SDS011;62742;52.136;4.500;2023-07-24T06:47:33;14.30;;;5.72;;
72856;SDS011;62742;52.136;4.500;2023-07-24T06:49:59;12.82;;;5.57;;
72856;SDS011;62742;52.136;4.500;2023-07-24T06:52:26;16.42;;;6.40;;
72856;SDS011;62742;52.136;4.500;2023-07-24T06:54:52;16.63;;;5.85;;
72856;SDS011;62742;52.136;4.500;2023-07-24T06:57:18;9.82;;;5.47;;
72856;SDS011;62742;52.136;4.500;2023-07-24T06:59:45;14.40;;;5.63;;
72856;SDS011;62742;52.136;4.500;2023-07-24T07:02:11;14.98;;;6.38;;
72856;SDS011;62742;52.136;4.500;2023-07-24T07:04:38;14.95;;;5.22;;
72856;SDS011;62742;52.136;4.500;2023-07-24T07:07:04;12.35;;;5.45;;
72856;SDS011;62742;52.136;4.500;2023-07-24T07:09:31;14.77;;;6.10;;
72856;SDS011;62742;52.136;4.500;2023-07-24T07:11:57;12.68;;;5.10;;
72856;SDS011;62742;52.136;4.500;2023-07-24T07:14:24;13.20;;;5.03;;
72856;SDS011;62742;52.136;4.500;2023-07-24T07:16:50;17.40;;;5.85;;
72856;SDS011;62742;52.136;4.500;2023-07-24T07:19:17;11.93;;;5.35;;
72856;SDS011;62742;52.136;4.500;2023-07-24T07:21:43;9.98;;;4.82;;
72856;SDS011;62742;52.136;4.500;2023-07-24T07:24:10;14.43;;;5.10;;
72856;SDS011;62742;52.136;4.500;2023-07-24T07:26:36;9.80;;;4.55;;
72856;SDS011;62742;52.136;4.500;2023-07-24T07:29:02;11.95;;;4.50;;
72856;SDS011;62742;52.136;4.500;2023-07-24T07:31:29;13.00;;;4.75;;
72856;SDS011;62742;52.136;4.500;2023-07-24T07:33:56;12.52;;;4.50;;
72856;SDS011;62742;52.136;4.500;2023-07-24T07:36:22;8.80;;;4.05;;
72856;SDS011;62742;52.136;4.500;2023-07-24T07:38:49;8.32;;;3.72;;
72856;SDS011;62742;52.136;4.500;2023-07-24T07:41:15;9.20;;;4.20;;
72856;SDS011;62742;52.136;4.500;2023-07-24T07:43:41;10.57;;;4.43;;
72856;SDS011;62742;52.136;4.500;2023-07-24T07:46:08;10.40;;;4.25;;
72856;SDS011;62742;52.136;4.500;2023-07-24T07:48:35;9.52;;;4.18;;
72856;SDS011;62742;52.136;4.500;2023-07-24T07:51:01;8.75;;;3.65;;
72856;SDS011;62742;52.136;4.500;2023-07-24T07:53:28;12.27;;;3.70;;
72856;SDS011;62742;52.136;4.500;2023-07-24T07:55:55;6.75;;;3.45;;
72856;SDS011;62742;52.136;4.500;2023-07-24T07:58:23;8.32;;;3.47;;
72856;SDS011;62742;52.136;4.500;2023-07-24T08:00:51;9.20;;;3.78;;
72856;SDS011;62742;52.136;4.500;2023-07-24T08:03:17;9.90;;;4.00;;
72856;SDS011;62742;52.136;4.500;2023-07-24T08:05:44;10.75;;;4.18;;
72856;SDS011;62742;52.136;4.500;2023-07-24T08:08:10;8.85;;;3.80;;
72856;SDS011;62742;52.136;4.500;2023-07-24T08:10:37;9.13;;;4.10;;
72856;SDS011;62742;52.136;4.500;2023-07-24T08:13:04;9.68;;;4.18;;
72856;SDS011;62742;52.136;4.500;2023-07-24T08:15:34;10.32;;;5.10;;
72856;SDS011;62742;52.136;4.500;2023-07-24T08:18:02;8.88;;;4.53;;
72856;SDS011;62742;52.136;4.500;2023-07-24T08:20:31;9.88;;;3.83;;
72856;SDS011;62742;52.136;4.500;2023-07-24T08:23:02;9.20;;;4.50;;
72856;SDS011;62742;52.136;4.500;2023-07-24T08:25:30;9.68;;;4.05;;
72856;SDS011;62742;52.136;4.500;2023-07-24T08:27:56;10.32;;;4.18;;
72856;SDS011;62742;52.136;4.500;2023-07-24T08:30:24;9.55;;;3.83;;
72856;SDS011;62742;52.136;4.500;2023-07-24T08:32:51;9.35;;;3.92;;
72856;SDS011;62742;52.136;4.500;2023-07-24T08:35:20;7.68;;;3.78;;
72856;SDS011;62742;52.136;4.500;2023-07-24T08:37:46;8.07;;;3.63;;
72856;SDS011;62742;52.136;4.500;2023-07-24T08:40:13;8.88;;;3.58;;
72856;SDS011;62742;52.136;4.500;2023-07-24T08:42:45;11.40;;;4.18;;
72856;SDS011;62742;52.136;4.500;2023-07-24T08:45:16;10.02;;;3.80;;
72856;SDS011;62742;52.136;4.500;2023-07-24T08:47:44;8.70;;;3.80;;
72856;SDS011;62742;52.136;4.500;2023-07-24T08:50:11;6.70;;;3.42;;
72856;SDS011;62742;52.136;4.500;2023-07-24T08:52:40;8.15;;;3.70;;
72856;SDS011;62742;52.136;4.500;2023-07-24T08:55:08;9.00;;;4.05;;
72856;SDS011;62742;52.136;4.500;2023-07-24T08:57:35;8.25;;;3.75;;
72856;SDS011;62742;52.136;4.500;2023-07-24T09:00:02;12.38;;;4.38;;
72856;SDS011;62742;52.136;4.500;2023-07-24T09:02:31;9.25;;;4.10;;
72856;SDS011;62742;52.136;4.500;2023-07-24T09:05:00;9.35;;;4.10;;
72856;SDS011;62742;52.136;4.500;2023-07-24T09:07:31;8.38;;;3.95;;
72856;SDS011;62742;52.136;4.500;2023-07-24T09:09:58;8.25;;;4.22;;
72856;SDS011;62742;52.136;4.500;2023-07-24T09:12:25;9.05;;;4.07;;
72856;SDS011;62742;52.136;4.500;2023-07-24T09:15:02;8.93;;;4.32;;
72856;SDS011;62742;52.136;4.500;2023-07-24T09:17:31;9.75;;;4.32;;
72856;SDS011;62742;52.136;4.500;2023-07-24T09:19:57;8.10;;;3.70;;
72856;SDS011;62742;52.136;4.500;2023-07-24T09:22:24;11.85;;;3.60;;
72856;SDS011;62742;52.136;4.500;2023-07-24T09:24:53;10.60;;;3.90;;
72856;SDS011;62742;52.136;4.500;2023-07-24T09:27:25;8.88;;;3.72;;
72856;SDS011;62742;52.136;4.500;2023-07-24T09:29:54;9.52;;;3.88;;
72856;SDS011;62742;52.136;4.500;2023-07-24T09:32:22;9.52;;;4.07;;
72856;SDS011;62742;52.136;4.500;2023-07-24T09:34:52;9.35;;;3.70;;
72856;SDS011;62742;52.136;4.500;2023-07-24T09:37:23;7.47;;;3.72;;
72856;SDS011;62742;52.136;4.500;2023-07-24T09:39:52;8.48;;;3.67;;
72856;SDS011;62742;52.136;4.500;2023-07-24T09:42:18;9.55;;;4.00;;
72856;SDS011;62742;52.136;4.500;2023-07-24T09:44:55;12.43;;;4.57;;
72856;SDS011;62742;52.136;4.500;2023-07-24T09:47:21;9.60;;;4.57;;
72856;SDS011;62742;52.136;4.500;2023-07-24T09:49:48;9.43;;;4.55;;
72856;SDS011;62742;52.136;4.500;2023-07-24T09:52:18;8.05;;;4.55;;
72856;SDS011;62742;52.136;4.500;2023-07-24T09:54:52;11.55;;;4.35;;
72856;SDS011;62742;52.136;4.500;2023-07-24T09:57:33;9.00;;;4.40;;
72856;SDS011;62742;52.136;4.500;2023-07-24T10:00:01;9.70;;;4.13;;
72856;SDS011;62742;52.136;4.500;2023-07-24T10:02:28;11.00;;;4.57;;
72856;SDS011;62742;52.136;4.500;2023-07-24T10:04:56;11.00;;;4.10;;
72856;SDS011;62742;52.136;4.500;2023-07-24T10:07:23;11.05;;;4.95;;
72856;SDS011;62742;52.136;4.500;2023-07-24T10:09:50;7.97;;;4.20;;
72856;SDS011;62742;52.136;4.500;2023-07-24T10:12:20;8.35;;;3.90;;
72856;SDS011;62742;52.136;4.500;2023-07-24T10:14:48;9.02;;;4.28;;
72856;SDS011;62742;52.136;4.500;2023-07-24T10:17:24;10.73;;;4.70;;
72856;SDS011;62742;52.136;4.500;2023-07-24T10:20:08;11.18;;;4.35;;
72856;SDS011;62742;52.136;4.500;2023-07-24T10:22:40;9.52;;;4.43;;
72856;SDS011;62742;52.136;4.500;2023-07-24T10:25:08;7.90;;;3.75;;
72856;SDS011;62742;52.136;4.500;2023-07-24T10:27:39;9.60;;;4.45;;
72856;SDS011;62742;52.136;4.500;2023-07-24T10:30:10;13.35;;;3.78;;
72856;SDS011;62742;52.136;4.500;2023-07-24T10:32:47;9.43;;;4.22;;
72856;SDS011;62742;52.136;4.500;2023-07-24T10:35:15;7.85;;;3.70;;
72856;SDS011;62742;52.136;4.500;2023-07-24T10:37:43;9.52;;;4.32;;
72856;SDS011;62742;52.136;4.500;2023-07-24T10:40:18;7.85;;;4.32;;
72856;SDS011;62742;52.136;4.500;2023-07-24T10:42:47;7.57;;;3.80;;
72856;SDS011;62742;52.136;4.500;2023-07-24T10:45:25;7.28;;;3.67;;
72856;SDS011;62742;52.136;4.500;2023-07-24T10:47:52;7.20;;;3.83;;
72856;SDS011;62742;52.136;4.500;2023-07-24T10:50:19;8.32;;;3.88;;
72856;SDS011;62742;52.136;4.500;2023-07-24T10:52:46;10.55;;;4.20;;
72856;SDS011;62742;52.136;4.500;2023-07-24T10:55:14;7.55;;;3.45;;
72856;SDS011;62742;52.136;4.500;2023-07-24T10:57:40;6.05;;;3.83;;
72856;SDS011;62742;52.136;4.500;2023-07-24T11:00:07;7.03;;;3.88;;
72856;SDS011;62742;52.136;4.500;2023-07-24T11:02:34;9.43;;;4.40;;
72856;SDS011;62742;52.136;4.500;2023-07-24T11:05:01;7.93;;;3.70;;
72856;SDS011;62742;52.136;4.500;2023-07-24T11:07:31;8.23;;;4.03;;
72856;SDS011;62742;52.136;4.500;2023-07-24T11:09:59;8.05;;;3.30;;
72856;SDS011;62742;52.136;4.500;2023-07-24T11:12:25;4.80;;;2.47;;
72856;SDS011;62742;52.136;4.500;2023-07-24T11:14:56;7.25;;;2.45;;
72856;SDS011;62742;52.136;4.500;2023-07-24T11:17:37;4.75;;;2.25;;
72856;SDS011;62742;52.136;4.500;2023-07-24T11:20:12;4.55;;;2.20;;
72856;SDS011;62742;52.136;4.500;2023-07-24T11:22:41;5.97;;;2.55;;
72856;SDS011;62742;52.136;4.500;2023-07-24T11:25:10;8.98;;;2.58;;
72856;SDS011;62742;52.136;4.500;2023-07-24T11:27:38;4.65;;;2.58;;
72856;SDS011;62742;52.136;4.500;2023-07-24T11:30:18;4.05;;;2.13;;
72856;SDS011;62742;52.136;4.500;2023-07-24T11:32:47;4.30;;;2.28;;
72856;SDS011;62742;52.136;4.500;2023-07-24T11:35:15;7.05;;;2.25;;
72856;SDS011;62742;52.136;4.500;2023-07-24T11:37:42;4.63;;;2.00;;
72856;SDS011;62742;52.136;4.500;2023-07-24T11:40:09;4.47;;;2.35;;
72856;SDS011;62742;52.136;4.500;2023-07-24T11:42:39;3.33;;;1.60;;
72856;SDS011;62742;52.136;4.500;2023-07-24T11:45:08;4.22;;;2.00;;
72856;SDS011;62742;52.136;4.500;2023-07-24T11:47:55;2.97;;;1.65;;
72856;SDS011;62742;52.136;4.500;2023-07-24T11:50:22;4.70;;;1.80;;
72856;SDS011;62742;52.136;4.500;2023-07-24T11:52:50;3.05;;;1.70;;
72856;SDS011;62742;52.136;4.500;2023-07-24T11:55:41;3.83;;;1.83;;
72856;SDS011;62742;52.136;4.500;2023-07-24T12:00:33;3.88;;;1.50;;
72856;SDS011;62742;52.136;4.500;2023-07-24T12:03:00;4.20;;;1.60;;
72856;SDS011;62742;52.136;4.500;2023-07-24T12:05:27;5.03;;;1.60;;
72856;SDS011;62742;52.136;4.500;2023-07-24T12:07:55;4.03;;;1.50;;
72856;SDS011;62742;52.136;4.500;2023-07-24T12:10:25;3.75;;;1.52;;
72856;SDS011;62742;52.136;4.500;2023-07-24T12:12:54;3.65;;;1.42;;
72856;SDS011;62742;52.136;4.500;2023-07-24T12:15:25;3.63;;;1.40;;
72856;SDS011;62742;52.136;4.500;2023-07-24T12:17:52;2.55;;;1.50;;
72856;SDS011;62742;52.136;4.500;2023-07-24T12:20:19;3.97;;;1.50;;
72856;SDS011;62742;52.136;4.500;2023-07-24T12:22:45;2.50;;;1.20;;
72856;SDS011;62742;52.136;4.500;2023-07-24T12:25:12;4.68;;;1.83;;
72856;SDS011;62742;52.136;4.500;2023-07-24T12:27:39;6.20;;;2.20;;
72856;SDS011;62742;52.136;4.500;2023-07-24T12:30:07;3.72;;;1.58;;
72856;SDS011;62742;52.136;4.500;2023-07-24T12:32:34;6.93;;;1.60;;
72856;SDS011;62742;52.136;4.500;2023-07-24T12:35:01;4.95;;;1.67;;
72856;SDS011;62742;52.136;4.500;2023-07-24T12:37:27;6.82;;;1.60;;
72856;SDS011;62742;52.136;4.500;2023-07-24T12:39:54;5.70;;;1.60;;
72856;SDS011;62742;52.136;4.500;2023-07-24T12:42:21;4.68;;;1.35;;
72856;SDS011;62742;52.136;4.500;2023-07-24T12:44:47;4.78;;;1.55;;
72856;SDS011;62742;52.136;4.500;2023-07-24T12:47:14;6.07;;;1.60;;
72856;SDS011;62742;52.136;4.500;2023-07-24T12:49:40;5.93;;;1.90;;
72856;SDS011;62742;52.136;4.500;2023-07-24T12:52:07;5.47;;;1.60;;
72856;SDS011;62742;52.136;4.500;2023-07-24T12:54:34;5.65;;;1.83;;
72856;SDS011;62742;52.136;4.500;2023-07-24T12:57:01;4.78;;;1.50;;
72856;SDS011;62742;52.136;4.500;2023-07-24T12:59:28;5.18;;;1.67;;
72856;SDS011;62742;52.136;4.500;2023-07-24T13:01:55;4.93;;;1.58;;
72856;SDS011;62742;52.136;4.500;2023-07-24T13:04:22;6.97;;;1.88;;
72856;SDS011;62742;52.136;4.500;2023-07-24T13:06:50;7.60;;;1.80;;
72856;SDS011;62742;52.136;4.500;2023-07-24T13:09:17;6.85;;;1.67;;
72856;SDS011;62742;52.136;4.500;2023-07-24T13:11:45;6.88;;;2.22;;
72856;SDS011;62742;52.136;4.500;2023-07-24T13:14:16;7.30;;;1.83;;
72856;SDS011;62742;52.136;4.500;2023-07-24T13:16:44;5.57;;;1.98;;
72856;SDS011;62742;52.136;4.500;2023-07-24T13:19:10;9.00;;;2.53;;
72856;SDS011;62742;52.136;4.500;2023-07-24T13:21:37;8.65;;;1.75;;
72856;SDS011;62742;52.136;4.500;2023-07-24T13:24:06;7.20;;;2.20;;
72856;SDS011;62742;52.136;4.500;2023-07-24T13:26:33;6.32;;;1.85;;
72856;SDS011;62742;52.136;4.500;2023-07-24T13:29:00;9.15;;;2.40;;
72856;SDS011;62742;52.136;4.500;2023-07-24T13:31:26;5.78;;;2.45;;
72856;SDS011;62742;52.136;4.500;2023-07-24T13:33:54;10.00;;;2.22;;
72856;SDS011;62742;52.136;4.500;2023-07-24T13:36:21;7.53;;;1.98;;
72856;SDS011;62742;52.136;4.500;2023-07-24T13:38:47;10.98;;;2.03;;
72856;SDS011;62742;52.136;4.500;2023-07-24T13:41:14;5.78;;;1.83;;
72856;SDS011;62742;52.136;4.500;2023-07-24T13:43:40;9.18;;;4.45;;
72856;SDS011;62742;52.136;4.500;2023-07-24T13:46:07;4.43;;;1.77;;
72856;SDS011;62742;52.136;4.500;2023-07-24T13:48:34;8.18;;;2.20;;
72856;SDS011;62742;52.136;4.500;2023-07-24T13:51:00;8.23;;;1.90;;
72856;SDS011;62742;52.136;4.500;2023-07-24T13:53:28;9.27;;;3.20;;
72856;SDS011;62742;52.136;4.500;2023-07-24T13:55:55;8.88;;;2.47;;
72856;SDS011;62742;52.136;4.500;2023-07-24T13:58:21;5.78;;;1.83;;
72856;SDS011;62742;52.136;4.500;2023-07-24T14:00:48;12.75;;;4.05;;
72856;SDS011;62742;52.136;4.500;2023-07-24T14:03:14;8.70;;;2.45;;
72856;SDS011;62742;52.136;4.500;2023-07-24T14:05:41;8.85;;;2.40;;
72856;SDS011;62742;52.136;4.500;2023-07-24T14:08:07;7.85;;;1.92;;
72856;SDS011;62742;52.136;4.500;2023-07-24T14:10:34;6.43;;;1.90;;
72856;SDS011;62742;52.136;4.500;2023-07-24T14:13:01;7.93;;;2.72;;
72856;SDS011;62742;52.136;4.500;2023-07-24T14:15:28;8.23;;;3.13;;
72856;SDS011;62742;52.136;4.500;2023-07-24T14:17:55;8.55;;;2.22;;
72856;SDS011;62742;52.136;4.500;2023-07-24T14:20:22;6.25;;;2.85;;
72856;SDS011;62742;52.136;4.500;2023-07-24T14:22:48;7.75;;;1.92;;
72856;SDS011;62742;52.136;4.500;2023-07-24T14:25:18;8.23;;;2.80;;
72856;SDS011;62742;52.136;4.500;2023-07-24T14:27:44;6.90;;;2.38;;
72856;SDS011;62742;52.136;4.500;2023-07-24T14:30:11;10.25;;;6.03;;
72856;SDS011;62742;52.136;4.500;2023-07-24T14:32:37;3.75;;;1.33;;
72856;SDS011;62742;52.136;4.500;2023-07-24T14:35:04;4.32;;;1.80;;
72856;SDS011;62742;52.136;4.500;2023-07-24T14:37:31;3.80;;;1.25;;
72856;SDS011;62742;52.136;4.500;2023-07-24T14:39:57;4.47;;;1.17;;
72856;SDS011;62742;52.136;4.500;2023-07-24T14:42:24;5.15;;;2.03;;
72856;SDS011;62742;52.136;4.500;2023-07-24T14:44:51;7.00;;;1.55;;
72856;SDS011;62742;52.136;4.500;2023-07-24T14:47:17;3.45;;;1.00;;
72856;SDS011;62742;52.136;4.500;2023-07-24T14:49:43;5.68;;;1.30;;
72856;SDS011;62742;52.136;4.500;2023-07-24T14:52:10;2.78;;;0.70;;